Culleredo, Spain
Current Conditions -  °F | °C
As of 8:00 PM on Thursday 23 Oct 2014 (Local Time) from LECO Reporting Station
Few Clouds Few Clouds  
Wind Chill: 70°   Ceiling: Unl
Heat Index: 70°   Visibility: 6mi
Dew Point: 64°   Wind: 1mph
Humidity: 83%   Direction: NA
Pressure: 30.15"   Gusts: NA
Location:  43.29°N, 8.39°W
Report Text: LECO 231800Z VRB01KT 9999 FEW040 21/18 Q1021 NOSIG
Loading
Personal Weather Stations






























Interactive Weather Map
Tropical Storm Tracking
New forecast layout! Learn more

10-Day Weather Forecast

Advertisements
Track Severe Weather on mobile